Flight Track Log - Related Links

Times and Time Zones

All times are in EDT time to prevent confusion due to time zone crossing. See the AAL1471 flight status page for this flight to view local times or setup timezone preferences in your user account.

Time Position Orientation Groundspeed Altitude Reporting Facility
EDT Latitude Longitude Course Direction KTS MPH feet Rate Location/Type
Mon 09:57:33 AM 32.8833 -97.0500 321° Northwest 174 200 1,100  Level Dallas / Fort Worth TRACON
Mon 09:57:58 AM 32.8667 -97.0500 180° South 174 200 2,300 2,357 Climbing Dallas / Fort Worth TRACON
Mon 09:58:57 AM 32.8167 -97.0667 196° South 235 270 4,400 2,420 Climbing Dallas / Fort Worth TRACON
Mon 09:59:57 AM 32.7667 -97.1167 220° Southwest 269 310 7,100 2,628 Climbing Dallas / Fort Worth TRACON
Mon 10:00:58 AM 32.7667 -97.2000 270° West 296 341 9,700 2,500 Climbing Dallas / Fort Worth TRACON
Mon 10:01:00 AM 32.9777 -97.1168 321° Northwest  Level Estimated
Mon 10:01:57 AM 32.8167 -97.2667 312° West 317 365 12,100  Level Dallas / Fort Worth TRACON
Mon 10:02:00 AM 33.0586 -97.1956 321° Northwest  Level Estimated
Mon 10:03:16 AM 32.9544 -97.2739 357° North 367 422 15,000  Level Fort Worth Center
Mon 10:04:17 AM 33.0631 -97.2681 North 388 447 17,600 2,488 Climbing Fort Worth Center
Mon 10:05:19 AM 33.1828 -97.2631 North 395 455 20,100 2,341 Climbing Fort Worth Center
Mon 10:06:20 AM 33.2997 -97.2575 North 418 481 22,400 1,902 Climbing Fort Worth Center
Mon 10:07:22 AM 33.4014 -97.2497 North 418 481 24,000 1,707 Climbing Fort Worth Center
Mon 10:08:23 AM 33.5483 -97.2367 North 441 507 25,900 1,756 Climbing Fort Worth Center
Mon 10:09:25 AM 33.6744 -97.2225 North 454 522 27,600 1,645 Climbing Fort Worth Center
Mon 10:10:27 AM 33.8022 -97.2278 358° North 460 529 29,300 1,756 Climbing Fort Worth Center
Mon 10:11:28 AM 33.9036 -97.3150 324° Northwest 452 520 31,200 1,659 Climbing Fort Worth Center
Mon 10:12:30 AM 33.9908 -97.4158 316° Northwest 442 509 32,700 1,355 Climbing Fort Worth Center
Mon 10:13:32 AM 34.0797 -97.5136 318° Northwest 437 503 34,000 1,210 Climbing Fort Worth Center
Mon 10:14:34 AM 34.1758 -97.6247 316° Northwest 441 507 35,200 976 Climbing Fort Worth Center
Mon 10:15:35 AM 34.2725 -97.7314 318° Northwest 426 490 36,000 390 Climbing Fort Worth Center
Mon 10:16:37 AM 34.3483 -97.8161 317° Northwest 420 483 36,000  Level Fort Worth Center
Mon 10:17:39 AM 34.4336 -97.9103 318° Northwest 418 481 36,000  Level Fort Worth Center
Mon 10:18:40 AM 34.5367 -98.0278 317° Northwest 418 481 36,000  Level Fort Worth Center
Mon 10:19:42 AM 34.6222 -98.1208 318° Northwest 415 478 36,000  Level Fort Worth Center
Mon 10:20:44 AM 34.7075 -98.2175 317° Northwest 416 479 36,000  Level Fort Worth Center
Mon 10:21:46 AM 34.7939 -98.3133 318° Northwest 418 481 36,000  Level Fort Worth Center
Mon 10:22:48 AM 34.8783 -98.4108 317° Northwest 418 481 36,000  Level Fort Worth Center
Mon 10:23:49 AM 34.9689 -98.5117 318° Northwest 422 486 36,000  Level Fort Worth Center
Mon 10:24:51 AM 35.0539 -98.6072 317° Northwest 419 482 36,000  Level Fort Worth Center
Mon 10:25:53 AM 35.1378 -98.7047 316° Northwest 417 480 36,000  Level Fort Worth Center
Mon 10:26:55 AM 35.2228 -98.8017 317° Northwest 417 480 36,000 -48 Level Fort Worth Center
Mon 10:27:57 AM 35.3253 -98.9181 317° Northwest 415 478 35,900  Descending Fort Worth Center
Mon 10:28:59 AM 35.4086 -99.0156 316° Northwest 415 478 36,000  Climbing Fort Worth Center
Mon 10:30:01 AM 35.4939 -99.1153 316° Northwest 419 482 35,900 -48 Descending Fort Worth Center
Mon 10:31:03 AM 35.5775 -99.2119 317° Northwest 414 476 35,900 48 Level Fort Worth Center
Mon 10:32:05 AM 35.6617 -99.3106 316° Northwest 414 476 36,000  Climbing Fort Worth Center
Mon 10:33:07 AM 35.7447 -99.4081 316° Northwest 413 475 35,900  Descending Fort Worth Center
Mon 10:34:08 AM 35.8281 -99.5058 316° Northwest 412 474 36,000 65 Climbing Fort Worth Center
Mon 10:34:40 AM 35.8756 -99.5650 315° West 411 473 36,000  Level Kansas City Center
Mon 10:35:41 AM 35.9583 -99.6642 316° Northwest 410 472 36,000  Level Kansas City Center
Mon 10:36:42 AM 36.0436 -99.7617 317° Northwest 411 473 36,000  Level Kansas City Center
Mon 10:37:43 AM 36.1272 -99.8600 316° Northwest 412 474 36,000  Level Kansas City Center
Mon 10:38:45 AM 36.2086 -99.9586 316° Northwest 412 474 36,000  Level Kansas City Center
Mon 10:39:46 AM 36.2889 -100.0558 316° Northwest 408 470 36,000  Level Kansas City Center
Mon 10:40:47 AM 36.3681 -100.1525 315° West 402 463 36,000  Level Kansas City Center
Mon 10:41:48 AM 36.4492 -100.2489 316° Northwest 401 461 36,000  Level Kansas City Center
Mon 10:42:50 AM 36.5311 -100.3447 317° Northwest 402 463 36,000  Level Kansas City Center
Mon 10:43:51 AM 36.6217 -100.4550 316° Northwest 402 463 36,000  Level Kansas City Center
Mon 10:44:52 AM 36.6986 -100.5483 316° Northwest 402 463 36,000  Level Kansas City Center
Mon 10:45:53 AM 36.7878 -100.6572 316° Northwest 402 463 36,000  Level Kansas City Center
Mon 10:46:55 AM 36.8656 -100.7528 316° Northwest 404 465 36,000  Level Kansas City Center
Mon 10:47:56 AM 36.9422 -100.8461 316° Northwest 404 465 36,000  Level Kansas City Center
Mon 10:48:57 AM 37.0311 -100.9558 315° West 403 464 36,000  Level Kansas City Center
Mon 10:49:58 AM 37.1028 -101.0553 312° West 402 463 36,000  Level Kansas City Center
Mon 10:51:00 AM 37.1719 -101.1572 310° West 402 463 36,000  Level Kansas City Center
Mon 10:52:01 AM 37.2531 -101.2753 311° West 402 463 36,000  Level Kansas City Center
Mon 10:53:02 AM 37.3231 -101.3772 311° West 401 461 36,000  Level Kansas City Center
Mon 10:54:03 AM 37.3914 -101.4792 310° West 401 461 36,000  Level Kansas City Center
Mon 10:55:05 AM 37.4717 -101.5967 311° West 398 458 36,000  Level Kansas City Center
Mon 10:56:06 AM 37.5394 -101.6983 310° West 396 456 36,000  Level Kansas City Center
Mon 10:57:07 AM 37.6192 -101.8147 311° West 396 456 36,000  Level Kansas City Center
Mon 10:58:09 AM 37.6867 -101.9169 310° West 395 455 36,000  Level Kansas City Center
Mon 10:59:11 AM 37.7550 -102.0194 310° West 395 455 36,000  Level Kansas City Center
Mon 11:00:12 AM 37.8353 -102.1378 311° West 396 456 36,000  Level Kansas City Center
Mon 11:01:03 AM 37.8919 -102.2228 310° West 396 456 36,000  Level Denver Center
Mon 11:02:05 AM 37.9603 -102.3250 310° West 396 456 36,000  Level Denver Center
Mon 11:03:07 AM 38.0389 -102.4467 309° West 400 460 36,000 -48 Level Denver Center
Mon 11:04:09 AM 38.1069 -102.5494 310° West 399 459 35,900 -871 Descending Denver Center
Mon 11:05:11 AM 38.1850 -102.6700 310° West 397 457 34,200 -1,452 Descending Denver Center
Mon 11:06:13 AM 38.2553 -102.7739 311° West 400 460 32,900 -1,258 Descending Denver Center
Mon 11:07:15 AM 38.3364 -102.8953 310° West 405 466 31,600 -1,306 Descending Denver Center
Mon 11:08:17 AM 38.4069 -102.9981 311° West 402 463 30,200 -768 Descending Denver Center
Mon 11:09:20 AM 38.4881 -103.1208 310° West 403 464 30,000 -1,104 Descending Denver Center
Mon 11:10:22 AM 38.5569 -103.2269 310° West 404 465 27,900 -1,645 Descending Denver Center
Mon 11:11:24 AM 38.6378 -103.3461 311° West 410 472 26,600 -1,065 Descending Denver Center
Mon 11:12:26 AM 38.7142 -103.4631 310° West 408 470 25,700 -823 Descending Denver Center
Mon 11:13:28 AM 38.7844 -103.5706 310° West 398 458 24,900 -823 Descending Denver Center
Mon 11:14:30 AM 38.8544 -103.6667 313° West 397 457 24,000 -1,548 Descending Denver Center
Mon 11:15:32 AM 38.9522 -103.7719 320° Northwest 383 441 21,700 -1,839 Descending Denver Center
Mon 11:16:34 AM 39.0303 -103.8608 319° Northwest 379 436 20,200 -1,790 Descending Denver Center
Mon 11:17:36 AM 39.1067 -103.9494 318° Northwest 376 433 18,000 -1,500 Descending Denver Center
Mon 11:18:38 AM 39.1775 -104.0289 319° Northwest 350 403 17,100 -677 Descending Denver Center
Mon 11:19:40 AM 39.2442 -104.1078 318° Northwest 297 342 16,600 -1,161 Descending Denver Center
Mon 11:20:42 AM 39.3100 -104.1650 326° Northwest 286 329 14,700 -1,548 Descending Denver Center
Mon 11:21:44 AM 39.3792 -104.2342 322° Northwest 291 335 13,400 -816 Descending Denver Center
Mon 11:22:47 AM 39.4439 -104.2972 323° Northwest 291 335 13,000 -192 Descending Denver Center
Mon 11:23:49 AM 39.5086 -104.3600 323° Northwest 291 335 13,000  Level Denver Center
Mon 11:24:51 AM 39.5842 -104.4189 329° Northwest 279 321 13,000  Level Denver Center
Mon 11:25:53 AM 39.6600 -104.4628 336° Northwest 295 339 13,000  Level Denver Center
Mon 11:26:55 AM 39.7417 -104.5097 336° Northwest 297 342 13,000 -435 Level Denver Center
Mon 11:27:57 AM 39.8253 -104.5189 355° North 304 350 12,100 -919 Descending Denver Center
Mon 11:28:59 AM 39.9133 -104.5264 356° North 300 345 11,100 -968 Descending Denver Center
Mon 11:30:01 AM 39.9828 -104.5314 357° North 255 293 10,100 -1,258 Descending Denver Center
Mon 11:31:03 AM 40.0533 -104.5442 352° North 243 280 8,500 -1,500 Descending Denver Center
Mon 11:32:05 AM 40.0681 -104.6222 284° West 234 269 7,000 -726 Descending Denver Center
Mon 11:33:07 AM 40.0283 -104.6778 227° Southwest 203 234 7,000 -145 Level Denver Center
Mon 11:34:09 AM 39.9806 -104.6858 187° South 176 203 6,700 -435 Descending Denver Center
Mon 11:35:11 AM 39.9369 -104.6864 181° South 144 166 6,100 -629 Descending Denver Center
Mon 11:36:13 AM 39.9014 -104.6867 180° South 132 152 5,400 -677 Descending Denver Center

Login

Don't have an account? Register now (free) for customized features, flight alerts, and more!